sensor_id;sensor_type;location;lat;lon;timestamp;P1;durP1;ratioP1;P2;durP2;ratioP2
289;SDS011;13193;48.874;9.086;2022-12-26T00:01:23;7.07;;;2.60;;
289;SDS011;13193;48.874;9.086;2022-12-26T00:03:51;4.80;;;3.03;;
289;SDS011;13193;48.874;9.086;2022-12-26T00:06:20;6.27;;;3.00;;
289;SDS011;13193;48.874;9.086;2022-12-26T00:08:51;4.43;;;2.80;;
289;SDS011;13193;48.874;9.086;2022-12-26T00:11:17;4.93;;;2.30;;
289;SDS011;13193;48.874;9.086;2022-12-26T00:13:43;4.33;;;2.07;;
289;SDS011;13193;48.874;9.086;2022-12-26T00:16:13;5.33;;;2.10;;
289;SDS011;13193;48.874;9.086;2022-12-26T00:18:41;5.43;;;3.30;;
289;SDS011;13193;48.874;9.086;2022-12-26T00:21:08;6.17;;;3.17;;
289;SDS011;13193;48.874;9.086;2022-12-26T00:23:34;4.73;;;2.47;;
289;SDS011;13193;48.874;9.086;2022-12-26T00:26:08;7.30;;;2.80;;
289;SDS011;13193;48.874;9.086;2022-12-26T00:28:35;4.20;;;2.37;;
289;SDS011;13193;48.874;9.086;2022-12-26T00:31:04;10.30;;;3.13;;
289;SDS011;13193;48.874;9.086;2022-12-26T00:33:32;10.30;;;4.00;;
289;SDS011;13193;48.874;9.086;2022-12-26T00:36:03;7.03;;;3.70;;
289;SDS011;13193;48.874;9.086;2022-12-26T00:38:32;11.23;;;4.47;;
289;SDS011;13193;48.874;9.086;2022-12-26T00:41:02;8.80;;;4.40;;
289;SDS011;13193;48.874;9.086;2022-12-26T00:43:28;7.00;;;3.60;;
289;SDS011;13193;48.874;9.086;2022-12-26T00:45:54;6.67;;;3.70;;
289;SDS011;13193;48.874;9.086;2022-12-26T00:48:19;7.30;;;3.60;;
289;SDS011;13193;48.874;9.086;2022-12-26T00:50:45;7.47;;;3.70;;
289;SDS011;13193;48.874;9.086;2022-12-26T00:53:11;5.40;;;3.63;;
289;SDS011;13193;48.874;9.086;2022-12-26T00:55:36;8.17;;;4.10;;
289;SDS011;13193;48.874;9.086;2022-12-26T00:58:02;6.70;;;3.67;;
289;SDS011;13193;48.874;9.086;2022-12-26T01:00:28;10.17;;;4.83;;
289;SDS011;13193;48.874;9.086;2022-12-26T01:02:54;7.80;;;5.30;;
289;SDS011;13193;48.874;9.086;2022-12-26T01:05:20;7.90;;;4.50;;
289;SDS011;13193;48.874;9.086;2022-12-26T01:07:45;11.80;;;5.33;;
289;SDS011;13193;48.874;9.086;2022-12-26T01:10:11;8.17;;;4.10;;
289;SDS011;13193;48.874;9.086;2022-12-26T01:12:37;7.43;;;4.23;;
289;SDS011;13193;48.874;9.086;2022-12-26T01:15:04;7.60;;;3.70;;
289;SDS011;13193;48.874;9.086;2022-12-26T01:17:31;7.23;;;3.80;;
289;SDS011;13193;48.874;9.086;2022-12-26T01:19:57;13.20;;;5.70;;
289;SDS011;13193;48.874;9.086;2022-12-26T01:22:23;7.20;;;4.00;;
289;SDS011;13193;48.874;9.086;2022-12-26T01:24:58;8.70;;;4.17;;
289;SDS011;13193;48.874;9.086;2022-12-26T01:27:24;9.20;;;4.27;;
289;SDS011;13193;48.874;9.086;2022-12-26T01:29:50;7.07;;;3.80;;
289;SDS011;13193;48.874;9.086;2022-12-26T01:32:20;9.73;;;4.53;;
289;SDS011;13193;48.874;9.086;2022-12-26T01:34:45;8.37;;;4.63;;
289;SDS011;13193;48.874;9.086;2022-12-26T01:37:11;7.90;;;4.50;;
289;SDS011;13193;48.874;9.086;2022-12-26T01:39:37;7.40;;;4.10;;
289;SDS011;13193;48.874;9.086;2022-12-26T01:42:08;7.50;;;4.37;;
289;SDS011;13193;48.874;9.086;2022-12-26T01:47:25;12.90;;;4.67;;
289;SDS011;13193;48.874;9.086;2022-12-26T01:49:58;10.50;;;4.33;;
289;SDS011;13193;48.874;9.086;2022-12-26T01:52:37;7.63;;;4.23;;
289;SDS011;13193;48.874;9.086;2022-12-26T01:55:07;8.93;;;4.43;;
289;SDS011;13193;48.874;9.086;2022-12-26T01:57:41;9.40;;;4.10;;
289;SDS011;13193;48.874;9.086;2022-12-26T02:00:10;8.63;;;4.30;;
289;SDS011;13193;48.874;9.086;2022-12-26T02:02:36;8.13;;;4.03;;
289;SDS011;13193;48.874;9.086;2022-12-26T02:05:22;8.03;;;3.70;;
289;SDS011;13193;48.874;9.086;2022-12-26T02:07:58;6.23;;;3.53;;
289;SDS011;13193;48.874;9.086;2022-12-26T02:10:28;10.33;;;5.07;;
289;SDS011;13193;48.874;9.086;2022-12-26T02:12:57;11.83;;;5.50;;
289;SDS011;13193;48.874;9.086;2022-12-26T02:15:23;8.73;;;4.53;;
289;SDS011;13193;48.874;9.086;2022-12-26T02:17:49;12.40;;;4.93;;
289;SDS011;13193;48.874;9.086;2022-12-26T02:20:28;8.73;;;4.73;;
289;SDS011;13193;48.874;9.086;2022-12-26T02:23:12;8.87;;;4.10;;
289;SDS011;13193;48.874;9.086;2022-12-26T02:39:45;11.53;;;4.33;;
289;SDS011;13193;48.874;9.086;2022-12-26T02:42:32;7.07;;;4.43;;
289;SDS011;13193;48.874;9.086;2022-12-26T02:45:03;8.43;;;4.20;;
289;SDS011;13193;48.874;9.086;2022-12-26T02:51:03;10.50;;;4.10;;
289;SDS011;13193;48.874;9.086;2022-12-26T02:54:18;6.33;;;3.77;;
289;SDS011;13193;48.874;9.086;2022-12-26T02:57:15;7.90;;;3.80;;
289;SDS011;13193;48.874;9.086;2022-12-26T03:00:05;7.10;;;3.50;;
289;SDS011;13193;48.874;9.086;2022-12-26T03:03:02;5.10;;;3.27;;
289;SDS011;13193;48.874;9.086;2022-12-26T03:05:49;11.70;;;4.30;;
289;SDS011;13193;48.874;9.086;2022-12-26T03:08:49;8.17;;;3.27;;
289;SDS011;13193;48.874;9.086;2022-12-26T03:11:42;5.73;;;3.20;;
289;SDS011;13193;48.874;9.086;2022-12-26T03:14:41;3.60;;;2.53;;
289;SDS011;13193;48.874;9.086;2022-12-26T03:17:15;13.07;;;4.13;;
289;SDS011;13193;48.874;9.086;2022-12-26T03:20:13;6.00;;;3.20;;
289;SDS011;13193;48.874;9.086;2022-12-26T03:23:00;7.73;;;3.20;;
289;SDS011;13193;48.874;9.086;2022-12-26T03:25:38;3.93;;;2.77;;
289;SDS011;13193;48.874;9.086;2022-12-26T03:28:43;6.93;;;2.97;;
289;SDS011;13193;48.874;9.086;2022-12-26T03:31:11;7.23;;;2.77;;
289;SDS011;13193;48.874;9.086;2022-12-26T03:33:40;5.63;;;3.00;;
289;SDS011;13193;48.874;9.086;2022-12-26T03:45:42;5.03;;;2.60;;
289;SDS011;13193;48.874;9.086;2022-12-26T03:48:44;7.20;;;2.87;;
289;SDS011;13193;48.874;9.086;2022-12-26T03:51:40;7.93;;;3.23;;
289;SDS011;13193;48.874;9.086;2022-12-26T03:54:35;4.53;;;3.07;;
289;SDS011;13193;48.874;9.086;2022-12-26T03:57:29;7.40;;;3.27;;
289;SDS011;13193;48.874;9.086;2022-12-26T04:00:18;5.40;;;2.87;;
289;SDS011;13193;48.874;9.086;2022-12-26T04:03:06;5.23;;;2.83;;
289;SDS011;13193;48.874;9.086;2022-12-26T04:05:54;4.33;;;2.33;;
289;SDS011;13193;48.874;9.086;2022-12-26T04:08:46;7.27;;;2.77;;
289;SDS011;13193;48.874;9.086;2022-12-26T04:11:42;4.60;;;2.67;;
289;SDS011;13193;48.874;9.086;2022-12-26T04:26:29;3.50;;;2.53;;
289;SDS011;13193;48.874;9.086;2022-12-26T04:29:19;4.83;;;3.13;;
289;SDS011;13193;48.874;9.086;2022-12-26T04:32:10;5.77;;;3.10;;
289;SDS011;13193;48.874;9.086;2022-12-26T04:38:00;6.67;;;2.97;;
289;SDS011;13193;48.874;9.086;2022-12-26T04:40:48;4.90;;;2.73;;
289;SDS011;13193;48.874;9.086;2022-12-26T04:43:36;6.80;;;3.83;;
289;SDS011;13193;48.874;9.086;2022-12-26T04:46:23;4.97;;;3.40;;
289;SDS011;13193;48.874;9.086;2022-12-26T04:48:51;6.20;;;3.13;;
289;SDS011;13193;48.874;9.086;2022-12-26T04:51:37;4.23;;;2.30;;
289;SDS011;13193;48.874;9.086;2022-12-26T04:54:03;8.60;;;2.50;;
289;SDS011;13193;48.874;9.086;2022-12-26T04:56:29;3.60;;;2.03;;
289;SDS011;13193;48.874;9.086;2022-12-26T04:58:55;4.90;;;2.47;;
289;SDS011;13193;48.874;9.086;2022-12-26T05:01:20;3.87;;;2.57;;
289;SDS011;13193;48.874;9.086;2022-12-26T05:04:04;5.20;;;2.43;;
289;SDS011;13193;48.874;9.086;2022-12-26T05:06:48;3.83;;;2.20;;
289;SDS011;13193;48.874;9.086;2022-12-26T05:09:33;4.23;;;2.47;;
289;SDS011;13193;48.874;9.086;2022-12-26T05:12:00;4.27;;;2.40;;
289;SDS011;13193;48.874;9.086;2022-12-26T05:14:26;7.70;;;3.10;;
289;SDS011;13193;48.874;9.086;2022-12-26T05:16:53;3.80;;;2.60;;
289;SDS011;13193;48.874;9.086;2022-12-26T05:19:37;4.47;;;2.70;;
289;SDS011;13193;48.874;9.086;2022-12-26T05:22:21;5.50;;;2.90;;
289;SDS011;13193;48.874;9.086;2022-12-26T05:25:12;6.73;;;2.73;;
289;SDS011;13193;48.874;9.086;2022-12-26T05:28:00;4.83;;;2.50;;
289;SDS011;13193;48.874;9.086;2022-12-26T05:30:44;5.53;;;3.03;;
289;SDS011;13193;48.874;9.086;2022-12-26T05:33:09;9.20;;;3.40;;
289;SDS011;13193;48.874;9.086;2022-12-26T05:35:53;4.63;;;2.60;;
289;SDS011;13193;48.874;9.086;2022-12-26T05:38:19;14.57;;;2.73;;
289;SDS011;13193;48.874;9.086;2022-12-26T05:40:44;3.60;;;2.50;;
289;SDS011;13193;48.874;9.086;2022-12-26T05:43:10;5.03;;;2.43;;
289;SDS011;13193;48.874;9.086;2022-12-26T05:45:36;7.70;;;2.13;;
289;SDS011;13193;48.874;9.086;2022-12-26T05:48:01;4.50;;;2.10;;
289;SDS011;13193;48.874;9.086;2022-12-26T05:50:27;5.53;;;2.67;;
289;SDS011;13193;48.874;9.086;2022-12-26T05:52:55;4.93;;;2.60;;
289;SDS011;13193;48.874;9.086;2022-12-26T05:55:22;9.37;;;2.63;;
289;SDS011;13193;48.874;9.086;2022-12-26T05:57:48;8.03;;;2.80;;
289;SDS011;13193;48.874;9.086;2022-12-26T06:00:14;4.30;;;2.40;;
289;SDS011;13193;48.874;9.086;2022-12-26T06:02:40;6.03;;;2.53;;
289;SDS011;13193;48.874;9.086;2022-12-26T06:05:06;3.63;;;2.42;;
289;SDS011;13193;48.874;9.086;2022-12-26T06:07:31;7.20;;;4.40;;
289;SDS011;13193;48.874;9.086;2022-12-26T06:09:57;4.53;;;2.73;;
289;SDS011;13193;48.874;9.086;2022-12-26T06:12:23;8.50;;;3.03;;
289;SDS011;13193;48.874;9.086;2022-12-26T06:14:48;3.50;;;2.37;;
289;SDS011;13193;48.874;9.086;2022-12-26T06:17:14;7.00;;;2.67;;
289;SDS011;13193;48.874;9.086;2022-12-26T06:19:39;9.60;;;3.00;;
289;SDS011;13193;48.874;9.086;2022-12-26T06:22:05;5.50;;;3.20;;
289;SDS011;13193;48.874;9.086;2022-12-26T06:24:30;5.27;;;2.53;;
289;SDS011;13193;48.874;9.086;2022-12-26T06:26:56;9.20;;;3.50;;
289;SDS011;13193;48.874;9.086;2022-12-26T06:29:22;4.03;;;2.23;;
289;SDS011;13193;48.874;9.086;2022-12-26T06:31:47;3.60;;;2.23;;
289;SDS011;13193;48.874;9.086;2022-12-26T06:34:13;5.77;;;2.93;;
289;SDS011;13193;48.874;9.086;2022-12-26T06:36:38;4.63;;;2.80;;
289;SDS011;13193;48.874;9.086;2022-12-26T06:39:04;4.83;;;2.93;;
289;SDS011;13193;48.874;9.086;2022-12-26T06:41:30;4.80;;;2.90;;
289;SDS011;13193;48.874;9.086;2022-12-26T06:43:55;5.80;;;2.67;;
289;SDS011;13193;48.874;9.086;2022-12-26T06:46:22;7.43;;;3.33;;
289;SDS011;13193;48.874;9.086;2022-12-26T06:48:49;7.50;;;2.83;;
289;SDS011;13193;48.874;9.086;2022-12-26T06:51:19;5.23;;;2.03;;
289;SDS011;13193;48.874;9.086;2022-12-26T06:53:47;6.23;;;2.87;;
289;SDS011;13193;48.874;9.086;2022-12-26T06:56:15;4.83;;;2.80;;
289;SDS011;13193;48.874;9.086;2022-12-26T06:58:43;6.00;;;2.70;;
289;SDS011;13193;48.874;9.086;2022-12-26T07:01:10;4.40;;;2.40;;
289;SDS011;13193;48.874;9.086;2022-12-26T07:03:40;5.37;;;2.93;;
289;SDS011;13193;48.874;9.086;2022-12-26T07:06:10;4.60;;;2.23;;
289;SDS011;13193;48.874;9.086;2022-12-26T07:08:46;4.67;;;2.53;;
289;SDS011;13193;48.874;9.086;2022-12-26T07:11:19;3.57;;;2.37;;
289;SDS011;13193;48.874;9.086;2022-12-26T07:13:46;4.80;;;2.30;;
289;SDS011;13193;48.874;9.086;2022-12-26T07:16:12;3.57;;;2.33;;
289;SDS011;13193;48.874;9.086;2022-12-26T07:18:38;4.30;;;2.40;;
289;SDS011;13193;48.874;9.086;2022-12-26T07:21:08;3.60;;;2.40;;
289;SDS011;13193;48.874;9.086;2022-12-26T07:23:35;3.80;;;2.30;;
289;SDS011;13193;48.874;9.086;2022-12-26T07:26:01;5.07;;;2.87;;
289;SDS011;13193;48.874;9.086;2022-12-26T07:28:27;5.93;;;3.00;;
289;SDS011;13193;48.874;9.086;2022-12-26T07:30:52;4.80;;;2.90;;
289;SDS011;13193;48.874;9.086;2022-12-26T07:33:18;6.23;;;3.77;;
289;SDS011;13193;48.874;9.086;2022-12-26T07:35:44;4.73;;;3.13;;
289;SDS011;13193;48.874;9.086;2022-12-26T07:38:10;4.90;;;2.73;;
289;SDS011;13193;48.874;9.086;2022-12-26T07:40:36;5.20;;;2.93;;
289;SDS011;13193;48.874;9.086;2022-12-26T07:43:02;5.73;;;3.00;;
289;SDS011;13193;48.874;9.086;2022-12-26T07:45:28;7.60;;;4.07;;
289;SDS011;13193;48.874;9.086;2022-12-26T07:47:57;24.57;;;10.50;;
289;SDS011;13193;48.874;9.086;2022-12-26T07:50:23;27.10;;;9.47;;
289;SDS011;13193;48.874;9.086;2022-12-26T07:52:50;19.67;;;8.50;;
289;SDS011;13193;48.874;9.086;2022-12-26T07:55:16;18.87;;;9.60;;
289;SDS011;13193;48.874;9.086;2022-12-26T07:57:42;26.00;;;8.67;;
289;SDS011;13193;48.874;9.086;2022-12-26T08:00:08;19.00;;;8.60;;
289;SDS011;13193;48.874;9.086;2022-12-26T08:02:34;18.53;;;7.00;;
289;SDS011;13193;48.874;9.086;2022-12-26T08:05:00;16.60;;;7.00;;
289;SDS011;13193;48.874;9.086;2022-12-26T08:07:25;13.33;;;6.60;;
289;SDS011;13193;48.874;9.086;2022-12-26T08:09:51;12.83;;;7.17;;
289;SDS011;13193;48.874;9.086;2022-12-26T08:12:16;13.33;;;6.27;;
289;SDS011;13193;48.874;9.086;2022-12-26T08:14:45;12.43;;;6.20;;
289;SDS011;13193;48.874;9.086;2022-12-26T08:17:12;15.53;;;7.20;;
289;SDS011;13193;48.874;9.086;2022-12-26T08:19:38;20.37;;;8.27;;
289;SDS011;13193;48.874;9.086;2022-12-26T08:22:03;12.83;;;7.47;;
289;SDS011;13193;48.874;9.086;2022-12-26T08:24:29;10.73;;;6.30;;
289;SDS011;13193;48.874;9.086;2022-12-26T08:26:55;11.40;;;5.97;;
289;SDS011;13193;48.874;9.086;2022-12-26T08:29:21;16.20;;;7.43;;
289;SDS011;13193;48.874;9.086;2022-12-26T08:31:46;9.33;;;5.40;;
289;SDS011;13193;48.874;9.086;2022-12-26T08:34:12;11.03;;;6.30;;
289;SDS011;13193;48.874;9.086;2022-12-26T08:36:38;21.73;;;11.07;;
289;SDS011;13193;48.874;9.086;2022-12-26T08:39:04;13.93;;;6.57;;
289;SDS011;13193;48.874;9.086;2022-12-26T08:41:29;17.27;;;10.50;;
289;SDS011;13193;48.874;9.086;2022-12-26T08:43:55;13.50;;;7.20;;
289;SDS011;13193;48.874;9.086;2022-12-26T08:46:22;11.43;;;5.57;;
289;SDS011;13193;48.874;9.086;2022-12-26T08:48:48;9.90;;;5.20;;
289;SDS011;13193;48.874;9.086;2022-12-26T08:51:15;13.30;;;6.13;;
289;SDS011;13193;48.874;9.086;2022-12-26T08:53:41;23.37;;;7.60;;
289;SDS011;13193;48.874;9.086;2022-12-26T08:56:09;12.00;;;6.17;;
289;SDS011;13193;48.874;9.086;2022-12-26T08:58:36;13.10;;;6.27;;
289;SDS011;13193;48.874;9.086;2022-12-26T09:01:05;9.47;;;5.77;;
289;SDS011;13193;48.874;9.086;2022-12-26T09:03:33;10.83;;;5.53;;
289;SDS011;13193;48.874;9.086;2022-12-26T09:05:59;11.73;;;5.60;;
289;SDS011;13193;48.874;9.086;2022-12-26T09:08:26;9.93;;;5.00;;
289;SDS011;13193;48.874;9.086;2022-12-26T09:10:54;6.57;;;3.87;;
289;SDS011;13193;48.874;9.086;2022-12-26T09:13:25;10.63;;;4.40;;
289;SDS011;13193;48.874;9.086;2022-12-26T09:15:50;8.87;;;3.77;;
289;SDS011;13193;48.874;9.086;2022-12-26T09:18:16;8.70;;;4.60;;
289;SDS011;13193;48.874;9.086;2022-12-26T09:20:42;8.27;;;3.40;;
289;SDS011;13193;48.874;9.086;2022-12-26T09:23:07;7.53;;;3.70;;
289;SDS011;13193;48.874;9.086;2022-12-26T09:25:35;8.23;;;3.70;;
289;SDS011;13193;48.874;9.086;2022-12-26T09:28:01;6.43;;;3.67;;
289;SDS011;13193;48.874;9.086;2022-12-26T09:30:26;7.53;;;4.80;;
289;SDS011;13193;48.874;9.086;2022-12-26T09:32:52;10.87;;;4.73;;
289;SDS011;13193;48.874;9.086;2022-12-26T09:35:18;16.70;;;8.77;;
289;SDS011;13193;48.874;9.086;2022-12-26T09:37:43;16.50;;;7.40;;
289;SDS011;13193;48.874;9.086;2022-12-26T09:40:16;18.57;;;9.97;;
289;SDS011;13193;48.874;9.086;2022-12-26T09:43:00;18.23;;;7.20;;
289;SDS011;13193;48.874;9.086;2022-12-26T09:45:48;16.97;;;8.30;;
289;SDS011;13193;48.874;9.086;2022-12-26T09:48:26;18.30;;;7.90;;
289;SDS011;13193;48.874;9.086;2022-12-26T09:50:58;12.60;;;6.43;;
289;SDS011;13193;48.874;9.086;2022-12-26T09:53:26;7.33;;;2.83;;
289;SDS011;13193;48.874;9.086;2022-12-26T09:55:58;5.13;;;3.03;;
289;SDS011;13193;48.874;9.086;2022-12-26T09:58:30;8.90;;;3.63;;
289;SDS011;13193;48.874;9.086;2022-12-26T10:14:39;3.83;;;1.40;;
289;SDS011;13193;48.874;9.086;2022-12-26T10:22:59;5.30;;;2.17;;
289;SDS011;13193;48.874;9.086;2022-12-26T10:25:52;2.70;;;1.20;;
289;SDS011;13193;48.874;9.086;2022-12-26T10:31:11;4.33;;;1.83;;
289;SDS011;13193;48.874;9.086;2022-12-26T10:33:47;3.33;;;1.27;;
289;SDS011;13193;48.874;9.086;2022-12-26T10:36:39;3.50;;;1.40;;
289;SDS011;13193;48.874;9.086;2022-12-26T10:42:07;4.27;;;1.90;;
289;SDS011;13193;48.874;9.086;2022-12-26T10:44:39;1.83;;;1.20;;
289;SDS011;13193;48.874;9.086;2022-12-26T10:49:31;3.40;;;1.40;;
289;SDS011;13193;48.874;9.086;2022-12-26T10:51:58;3.37;;;2.00;;
289;SDS011;13193;48.874;9.086;2022-12-26T10:54:25;6.90;;;2.83;;
289;SDS011;13193;48.874;9.086;2022-12-26T10:56:53;5.77;;;3.20;;
289;SDS011;13193;48.874;9.086;2022-12-26T10:59:40;7.47;;;2.90;;
289;SDS011;13193;48.874;9.086;2022-12-26T11:02:12;2.47;;;1.43;;
289;SDS011;13193;48.874;9.086;2022-12-26T11:05:10;3.60;;;1.50;;
289;SDS011;13193;48.874;9.086;2022-12-26T11:07:45;4.80;;;1.67;;
289;SDS011;13193;48.874;9.086;2022-12-26T11:10:23;6.77;;;1.77;;
289;SDS011;13193;48.874;9.086;2022-12-26T11:12:52;6.67;;;2.13;;
289;SDS011;13193;48.874;9.086;2022-12-26T11:17:51;6.00;;;1.17;;
289;SDS011;13193;48.874;9.086;2022-12-26T11:22:48;2.43;;;1.10;;
289;SDS011;13193;48.874;9.086;2022-12-26T11:25:20;1.90;;;1.00;;
289;SDS011;13193;48.874;9.086;2022-12-26T11:27:54;2.20;;;1.30;;
289;SDS011;13193;48.874;9.086;2022-12-26T11:30:26;2.77;;;1.30;;
289;SDS011;13193;48.874;9.086;2022-12-26T11:33:03;2.80;;;1.90;;
289;SDS011;13193;48.874;9.086;2022-12-26T11:38:45;2.97;;;1.80;;
289;SDS011;13193;48.874;9.086;2022-12-26T11:44:19;2.57;;;1.50;;
289;SDS011;13193;48.874;9.086;2022-12-26T11:49:24;2.90;;;1.63;;
289;SDS011;13193;48.874;9.086;2022-12-26T11:51:56;5.17;;;1.20;;
289;SDS011;13193;48.874;9.086;2022-12-26T11:56:59;2.60;;;1.20;;
289;SDS011;13193;48.874;9.086;2022-12-26T11:59:25;2.70;;;1.57;;
289;SDS011;13193;48.874;9.086;2022-12-26T12:04:53;2.13;;;1.13;;
289;SDS011;13193;48.874;9.086;2022-12-26T12:07:34;3.80;;;1.40;;
289;SDS011;13193;48.874;9.086;2022-12-26T12:13:08;1.67;;;0.70;;
289;SDS011;13193;48.874;9.086;2022-12-26T12:15:45;2.27;;;0.60;;
289;SDS011;13193;48.874;9.086;2022-12-26T12:27:18;3.60;;;1.10;;
289;SDS011;13193;48.874;9.086;2022-12-26T12:30:14;2.00;;;0.90;;
289;SDS011;13193;48.874;9.086;2022-12-26T12:38:19;2.30;;;0.80;;
289;SDS011;13193;48.874;9.086;2022-12-26T12:49:57;3.03;;;1.00;;
289;SDS011;13193;48.874;9.086;2022-12-26T13:00:55;1.67;;;0.97;;
289;SDS011;13193;48.874;9.086;2022-12-26T13:03:34;4.93;;;1.07;;
289;SDS011;13193;48.874;9.086;2022-12-26T13:06:09;1.63;;;0.70;;
289;SDS011;13193;48.874;9.086;2022-12-26T13:08:50;1.63;;;1.00;;
289;SDS011;13193;48.874;9.086;2022-12-26T13:14:06;3.07;;;1.00;;
289;SDS011;13193;48.874;9.086;2022-12-26T13:16:40;1.30;;;0.87;;
289;SDS011;13193;48.874;9.086;2022-12-26T13:19:21;3.00;;;1.30;;
289;SDS011;13193;48.874;9.086;2022-12-26T13:22:16;2.47;;;1.60;;
289;SDS011;13193;48.874;9.086;2022-12-26T13:25:32;3.30;;;1.37;;
289;SDS011;13193;48.874;9.086;2022-12-26T13:28:05;4.60;;;1.37;;
289;SDS011;13193;48.874;9.086;2022-12-26T13:30:40;2.33;;;1.23;;
289;SDS011;13193;48.874;9.086;2022-12-26T13:33:10;1.57;;;1.00;;
289;SDS011;13193;48.874;9.086;2022-12-26T13:38:24;2.30;;;1.00;;
289;SDS011;13193;48.874;9.086;2022-12-26T13:41:14;1.60;;;0.87;;
289;SDS011;13193;48.874;9.086;2022-12-26T13:44:06;2.30;;;1.17;;
289;SDS011;13193;48.874;9.086;2022-12-26T13:49:36;2.37;;;1.33;;
289;SDS011;13193;48.874;9.086;2022-12-26T14:17:03;2.60;;;1.00;;
289;SDS011;13193;48.874;9.086;2022-12-26T14:25:25;2.53;;;1.30;;
289;SDS011;13193;48.874;9.086;2022-12-26T14:28:01;1.60;;;0.90;;
289;SDS011;13193;48.874;9.086;2022-12-26T14:31:01;1.80;;;0.80;;
289;SDS011;13193;48.874;9.086;2022-12-26T14:33:43;2.20;;;1.10;;
289;SDS011;13193;48.874;9.086;2022-12-26T14:45:00;4.03;;;2.23;;
289;SDS011;13193;48.874;9.086;2022-12-26T14:53:16;8.00;;;1.40;;
289;SDS011;13193;48.874;9.086;2022-12-26T15:00:54;1.47;;;0.87;;
289;SDS011;13193;48.874;9.086;2022-12-26T15:06:21;2.00;;;1.13;;
289;SDS011;13193;48.874;9.086;2022-12-26T15:20:15;3.43;;;1.63;;
289;SDS011;13193;48.874;9.086;2022-12-26T15:29:13;2.80;;;1.57;;
289;SDS011;13193;48.874;9.086;2022-12-26T15:34:30;3.40;;;1.77;;
289;SDS011;13193;48.874;9.086;2022-12-26T15:37:27;6.27;;;2.33;;
289;SDS011;13193;48.874;9.086;2022-12-26T15:43:17;4.80;;;1.80;;
289;SDS011;13193;48.874;9.086;2022-12-26T15:45:50;7.00;;;1.80;;
289;SDS011;13193;48.874;9.086;2022-12-26T16:04:52;5.00;;;2.03;;
289;SDS011;13193;48.874;9.086;2022-12-26T16:10:51;11.00;;;2.87;;
289;SDS011;13193;48.874;9.086;2022-12-26T16:13:05;4.00;;;2.30;;
289;SDS011;13193;48.874;9.086;2022-12-26T16:18:15;3.93;;;2.30;;
289;SDS011;13193;48.874;9.086;2022-12-26T16:20:43;3.40;;;2.23;;
289;SDS011;13193;48.874;9.086;2022-12-26T16:23:31;4.90;;;2.17;;
289;SDS011;13193;48.874;9.086;2022-12-26T16:26:01;4.70;;;2.53;;
289;SDS011;13193;48.874;9.086;2022-12-26T16:28:33;4.97;;;2.60;;
289;SDS011;13193;48.874;9.086;2022-12-26T16:31:04;6.93;;;2.10;;
289;SDS011;13193;48.874;9.086;2022-12-26T16:33:31;7.67;;;2.87;;
289;SDS011;13193;48.874;9.086;2022-12-26T16:36:03;3.80;;;1.97;;
289;SDS011;13193;48.874;9.086;2022-12-26T16:38:30;4.20;;;2.20;;
289;SDS011;13193;48.874;9.086;2022-12-26T16:40:56;4.90;;;2.13;;
289;SDS011;13193;48.874;9.086;2022-12-26T16:43:27;4.13;;;1.90;;
289;SDS011;13193;48.874;9.086;2022-12-26T16:45:57;7.17;;;3.47;;
289;SDS011;13193;48.874;9.086;2022-12-26T16:48:27;8.20;;;3.67;;
289;SDS011;13193;48.874;9.086;2022-12-26T16:50:59;8.57;;;4.10;;
289;SDS011;13193;48.874;9.086;2022-12-26T16:58:56;4.13;;;2.77;;
289;SDS011;13193;48.874;9.086;2022-12-26T17:01:28;4.83;;;3.20;;
289;SDS011;13193;48.874;9.086;2022-12-26T17:03:55;10.63;;;5.10;;
289;SDS011;13193;48.874;9.086;2022-12-26T17:06:28;10.63;;;5.93;;
289;SDS011;13193;48.874;9.086;2022-12-26T17:09:06;15.57;;;6.80;;
289;SDS011;13193;48.874;9.086;2022-12-26T17:11:36;10.60;;;5.23;;
289;SDS011;13193;48.874;9.086;2022-12-26T17:14:05;15.77;;;7.40;;
289;SDS011;13193;48.874;9.086;2022-12-26T17:16:37;18.40;;;7.87;;
289;SDS011;13193;48.874;9.086;2022-12-26T17:19:12;17.70;;;8.60;;
289;SDS011;13193;48.874;9.086;2022-12-26T17:24:47;15.30;;;8.13;;
289;SDS011;13193;48.874;9.086;2022-12-26T17:27:24;14.20;;;6.37;;
289;SDS011;13193;48.874;9.086;2022-12-26T17:29:54;12.97;;;7.30;;
289;SDS011;13193;48.874;9.086;2022-12-26T17:32:25;14.40;;;7.10;;
289;SDS011;13193;48.874;9.086;2022-12-26T17:34:51;14.77;;;7.80;;
289;SDS011;13193;48.874;9.086;2022-12-26T17:37:19;15.63;;;6.90;;
289;SDS011;13193;48.874;9.086;2022-12-26T17:40:21;16.83;;;8.20;;
289;SDS011;13193;48.874;9.086;2022-12-26T17:42:42;11.27;;;6.10;;
289;SDS011;13193;48.874;9.086;2022-12-26T17:45:16;6.03;;;3.23;;
289;SDS011;13193;48.874;9.086;2022-12-26T17:47:45;9.90;;;2.03;;
289;SDS011;13193;48.874;9.086;2022-12-26T17:50:11;3.63;;;1.70;;
289;SDS011;13193;48.874;9.086;2022-12-26T17:52:38;3.50;;;1.50;;
289;SDS011;13193;48.874;9.086;2022-12-26T17:55:05;5.83;;;2.10;;
289;SDS011;13193;48.874;9.086;2022-12-26T17:57:39;2.80;;;1.07;;
289;SDS011;13193;48.874;9.086;2022-12-26T18:00:09;3.10;;;1.03;;
289;SDS011;13193;48.874;9.086;2022-12-26T18:02:42;4.77;;;1.63;;
289;SDS011;13193;48.874;9.086;2022-12-26T18:05:08;1.40;;;0.70;;
289;SDS011;13193;48.874;9.086;2022-12-26T18:07:34;2.33;;;0.80;;
289;SDS011;13193;48.874;9.086;2022-12-26T18:10:00;2.20;;;0.83;;
289;SDS011;13193;48.874;9.086;2022-12-26T18:12:26;1.20;;;0.70;;
289;SDS011;13193;48.874;9.086;2022-12-26T18:14:52;2.40;;;0.90;;
289;SDS011;13193;48.874;9.086;2022-12-26T18:17:17;2.70;;;1.00;;
289;SDS011;13193;48.874;9.086;2022-12-26T18:19:44;2.40;;;0.80;;
289;SDS011;13193;48.874;9.086;2022-12-26T18:22:13;2.10;;;0.90;;
289;SDS011;13193;48.874;9.086;2022-12-26T18:24:40;18.30;;;3.33;;
289;SDS011;13193;48.874;9.086;2022-12-26T18:27:06;1.47;;;0.80;;
289;SDS011;13193;48.874;9.086;2022-12-26T18:29:40;6.50;;;0.90;;
289;SDS011;13193;48.874;9.086;2022-12-26T18:32:12;1.67;;;0.60;;
289;SDS011;13193;48.874;9.086;2022-12-26T18:34:48;3.40;;;1.17;;
289;SDS011;13193;48.874;9.086;2022-12-26T18:37:14;3.97;;;0.80;;
289;SDS011;13193;48.874;9.086;2022-12-26T18:39:40;1.57;;;0.83;;
289;SDS011;13193;48.874;9.086;2022-12-26T18:42:05;1.30;;;0.63;;
289;SDS011;13193;48.874;9.086;2022-12-26T18:44:34;1.30;;;0.80;;
289;SDS011;13193;48.874;9.086;2022-12-26T18:47:00;2.80;;;0.60;;
289;SDS011;13193;48.874;9.086;2022-12-26T18:49:26;2.40;;;0.70;;
289;SDS011;13193;48.874;9.086;2022-12-26T18:51:52;1.30;;;0.90;;
289;SDS011;13193;48.874;9.086;2022-12-26T18:54:17;1.40;;;0.60;;
289;SDS011;13193;48.874;9.086;2022-12-26T18:56:43;2.63;;;0.90;;
289;SDS011;13193;48.874;9.086;2022-12-26T18:59:08;3.40;;;1.40;;
289;SDS011;13193;48.874;9.086;2022-12-26T19:01:35;1.90;;;0.80;;
289;SDS011;13193;48.874;9.086;2022-12-26T19:04:00;2.20;;;0.90;;
289;SDS011;13193;48.874;9.086;2022-12-26T19:06:27;1.40;;;0.70;;
289;SDS011;13193;48.874;9.086;2022-12-26T19:08:54;1.60;;;0.63;;
289;SDS011;13193;48.874;9.086;2022-12-26T19:11:20;1.53;;;0.80;;
289;SDS011;13193;48.874;9.086;2022-12-26T19:13:46;2.13;;;0.80;;
289;SDS011;13193;48.874;9.086;2022-12-26T19:16:11;2.60;;;0.77;;
289;SDS011;13193;48.874;9.086;2022-12-26T19:18:37;3.03;;;1.23;;
289;SDS011;13193;48.874;9.086;2022-12-26T19:21:03;1.67;;;0.80;;
289;SDS011;13193;48.874;9.086;2022-12-26T19:23:29;1.90;;;0.80;;
289;SDS011;13193;48.874;9.086;2022-12-26T19:25:55;5.30;;;1.10;;
289;SDS011;13193;48.874;9.086;2022-12-26T19:28:20;8.63;;;1.10;;
289;SDS011;13193;48.874;9.086;2022-12-26T19:30:46;2.10;;;1.17;;
289;SDS011;13193;48.874;9.086;2022-12-26T19:33:11;4.43;;;1.53;;
289;SDS011;13193;48.874;9.086;2022-12-26T19:35:37;1.80;;;1.10;;
289;SDS011;13193;48.874;9.086;2022-12-26T19:38:03;1.00;;;0.60;;
289;SDS011;13193;48.874;9.086;2022-12-26T19:40:28;1.97;;;1.00;;
289;SDS011;13193;48.874;9.086;2022-12-26T19:42:54;1.70;;;0.70;;
289;SDS011;13193;48.874;9.086;2022-12-26T19:45:19;1.43;;;0.67;;